createdAt,value
2023-03-10T00:00:40.287Z,97286.22
2023-03-10T00:03:21.854Z,97285.63
2023-03-10T00:05:48.925Z,97284.06
2023-03-10T00:08:16.143Z,97282.44
2023-03-10T00:10:43.082Z,97277.28
2023-03-10T00:13:10.252Z,97281.53
2023-03-10T00:15:37.537Z,97274.50
2023-03-10T00:18:04.782Z,97265.78
2023-03-10T00:20:31.664Z,97268.25
2023-03-10T00:22:58.856Z,97261.25
2023-03-10T00:25:25.738Z,97259.38
2023-03-10T00:27:52.886Z,97256.63
2023-03-10T00:30:20.008Z,97255.69
2023-03-10T00:32:47.457Z,97262.38
2023-03-10T00:35:14.387Z,97265.59
2023-03-10T00:37:41.543Z,97261.06
2023-03-10T00:40:11.296Z,97261.53
2023-03-10T00:42:38.507Z,97258.41
2023-03-10T00:45:06.134Z,97260.78
2023-03-10T00:47:33.787Z,97259.25
2023-03-10T00:50:00.672Z,97254.03
2023-03-10T00:52:32.234Z,97244.78
2023-03-10T00:54:59.232Z,97244.84
2023-03-10T00:57:26.849Z,97246.00
2023-03-10T00:59:53.741Z,97241.69
2023-03-10T01:02:21.725Z,97237.25
2023-03-10T01:04:48.848Z,97235.56
2023-03-10T01:07:16.160Z,97234.78
2023-03-10T01:09:43.069Z,97229.56
2023-03-10T01:12:10.297Z,97219.16
2023-03-10T01:14:37.195Z,97209.56
2023-03-10T01:17:05.643Z,97217.31
2023-03-10T01:19:32.703Z,97209.34
2023-03-10T01:21:59.895Z,97200.53
2023-03-10T01:24:26.784Z,97205.75
2023-03-10T01:26:53.977Z,97198.88
2023-03-10T01:29:20.847Z,97196.31
2023-03-10T01:31:48.040Z,97208.50
2023-03-10T01:34:14.983Z,97195.53
2023-03-10T01:36:42.536Z,97199.19
2023-03-10T01:39:09.420Z,97201.09
2023-03-10T01:41:40.623Z,97194.34
2023-03-10T01:44:15.493Z,97194.63
2023-03-10T01:46:49.455Z,97192.94
2023-03-10T01:49:39.912Z,97185.31
2023-03-10T01:52:22.004Z,97184.88
2023-03-10T01:54:57.012Z,97186.84
2023-03-10T01:57:29.903Z,97181.91
2023-03-10T01:59:57.931Z,97163.09
2023-03-10T02:02:26.083Z,97167.72
2023-03-10T02:04:54.362Z,97173.13
2023-03-10T02:07:26.941Z,97171.72
2023-03-10T02:09:56.138Z,97170.22
2023-03-10T02:12:23.543Z,97165.22
2023-03-10T02:14:51.997Z,97163.59
2023-03-10T02:17:23.180Z,97166.91
2023-03-10T02:20:13.389Z,97151.66
2023-03-10T02:22:41.307Z,97147.34
2023-03-10T02:25:29.578Z,97156.22
2023-03-10T02:27:57.233Z,97155.69
2023-03-10T02:30:25.853Z,97152.66
2023-03-10T02:33:00.475Z,97153.06
2023-03-10T02:35:27.562Z,97153.41
2023-03-10T02:37:54.859Z,97146.06
2023-03-10T02:40:47.257Z,97152.41
2023-03-10T02:43:31.927Z,97143.13
2023-03-10T02:46:02.977Z,97147.91
2023-03-10T02:48:34.667Z,97147.66
2023-03-10T02:51:04.797Z,97137.16
2023-03-10T02:53:32.059Z,97140.63
2023-03-10T02:56:00.192Z,97141.53
2023-03-10T02:58:29.798Z,97138.94
2023-03-10T03:00:56.898Z,97137.41
2023-03-10T03:03:24.822Z,97137.22
2023-03-10T03:05:52.275Z,97140.69
2023-03-10T03:08:20.054Z,97145.84
2023-03-10T03:10:47.359Z,97137.84
2023-03-10T03:13:14.659Z,97125.50
2023-03-10T03:15:41.961Z,97116.97
2023-03-10T03:18:10.156Z,97111.91
2023-03-10T03:20:41.034Z,97128.56
2023-03-10T03:23:08.977Z,97122.56
2023-03-10T03:25:39.270Z,97113.81
2023-03-10T03:28:08.726Z,97110.06
2023-03-10T03:30:35.564Z,97108.31
2023-03-10T03:33:04.516Z,97106.47
2023-03-10T03:35:34.390Z,97102.09
2023-03-10T03:38:01.953Z,97100.88
2023-03-10T03:40:33.657Z,97103.16
2023-03-10T03:43:01.366Z,97105.31
2023-03-10T03:45:29.762Z,97108.53
2023-03-10T03:47:57.167Z,97113.66
2023-03-10T03:50:25.281Z,97106.47
2023-03-10T03:52:52.697Z,97112.28
2023-03-10T03:55:20.187Z,97112.88
2023-03-10T03:57:48.136Z,97116.97
2023-03-10T04:00:20.066Z,97117.72
2023-03-10T04:02:47.514Z,97107.19
2023-03-10T04:05:15.349Z,97114.94
2023-03-10T04:07:43.175Z,97112.28
2023-03-10T04:10:13.228Z,97108.88
2023-03-10T04:12:40.381Z,97112.59
2023-03-10T04:15:08.421Z,97111.75
2023-03-10T04:17:36.217Z,97097.59
2023-03-10T04:20:08.303Z,97094.00
2023-03-10T04:22:36.782Z,97092.16
2023-03-10T04:25:05.962Z,97097.88
2023-03-10T04:27:34.054Z,97094.28
2023-03-10T04:30:01.152Z,97095.41
2023-03-10T04:32:28.430Z,97102.41
2023-03-10T04:34:55.356Z,97101.66
2023-03-10T04:37:23.062Z,97099.03
2023-03-10T04:39:50.094Z,97098.19
2023-03-10T04:42:17.330Z,97092.22
2023-03-10T04:44:44.298Z,97085.47
2023-03-10T04:47:11.452Z,97085.53
2023-03-10T04:49:38.728Z,97081.00
2023-03-10T04:52:06.156Z,97083.38
2023-03-10T04:54:33.018Z,97084.91
2023-03-10T04:57:00.387Z,97080.28
2023-03-10T04:59:27.542Z,97082.25
2023-03-10T05:01:54.789Z,97067.91
2023-03-10T05:04:21.929Z,97081.44
2023-03-10T05:06:52.992Z,97074.94
2023-03-10T05:09:21.018Z,97072.66
2023-03-10T05:11:48.468Z,97071.47
2023-03-10T05:14:16.284Z,97074.44
2023-03-10T05:16:43.753Z,97071.38
2023-03-10T05:19:10.666Z,97070.00
2023-03-10T05:21:37.847Z,97060.25
2023-03-10T05:24:05.005Z,97060.88
2023-03-10T05:26:34.722Z,97059.03
2023-03-10T05:29:01.978Z,97070.09
2023-03-10T05:31:29.298Z,97067.28
2023-03-10T05:33:56.261Z,97065.44
2023-03-10T05:36:23.549Z,97063.41
2023-03-10T05:38:50.955Z,97073.59
2023-03-10T05:41:18.633Z,97069.59
2023-03-10T05:43:45.579Z,97067.31
2023-03-10T05:46:13.080Z,97057.72
2023-03-10T05:48:39.994Z,97059.25
2023-03-10T05:51:10.330Z,97050.81
2023-03-10T05:53:38.510Z,97058.34
2023-03-10T05:56:12.215Z,97051.66
2023-03-10T05:58:39.717Z,97057.66
2023-03-10T06:01:07.498Z,97053.66
2023-03-10T06:03:35.126Z,97046.16
2023-03-10T06:06:02.971Z,97057.34
2023-03-10T06:08:30.422Z,97058.66
2023-03-10T06:10:57.996Z,97054.00
2023-03-10T06:13:26.042Z,97047.91
2023-03-10T06:15:58.515Z,97051.09
2023-03-10T06:18:26.523Z,97053.75
2023-03-10T06:20:53.818Z,97047.97
2023-03-10T06:23:21.654Z,97049.38
2023-03-10T06:25:58.660Z,97040.16
2023-03-10T06:28:27.045Z,97045.91
2023-03-10T06:30:56.424Z,97060.53
2023-03-10T06:33:24.774Z,97057.50
2023-03-10T06:35:52.141Z,97063.50
2023-03-10T06:38:19.553Z,97059.22
2023-03-10T06:40:46.874Z,97046.59
2023-03-10T06:43:13.799Z,97045.19
2023-03-10T06:45:42.644Z,97053.31
2023-03-10T06:48:10.640Z,97051.91
2023-03-10T06:50:42.126Z,97044.69
2023-03-10T06:53:10.262Z,97043.47
2023-03-10T06:55:38.271Z,97040.94
2023-03-10T06:58:05.242Z,97041.97
2023-03-10T07:00:32.484Z,97051.34
2023-03-10T07:03:00.007Z,97042.28
2023-03-10T07:05:27.958Z,97033.19
2023-03-10T07:07:55.832Z,97041.13
2023-03-10T07:10:23.367Z,97048.47
2023-03-10T07:12:55.268Z,97052.25
2023-03-10T07:15:23.044Z,97043.66
2023-03-10T07:17:49.992Z,97039.47
2023-03-10T07:20:18.524Z,97028.47
2023-03-10T07:22:45.385Z,97038.81
2023-03-10T07:25:12.519Z,97034.66
2023-03-10T07:27:39.388Z,97028.38
2023-03-10T07:30:07.799Z,97035.91
2023-03-10T07:32:34.763Z,97024.44
2023-03-10T07:35:02.321Z,97022.06
2023-03-10T07:37:29.205Z,97033.66
2023-03-10T07:39:56.439Z,97042.16
2023-03-10T07:42:23.434Z,97014.75
2023-03-10T07:44:50.843Z,97018.84
2023-03-10T07:47:17.876Z,97011.66
2023-03-10T07:49:47.043Z,97011.31
2023-03-10T07:52:15.459Z,97019.50
2023-03-10T07:54:44.416Z,97006.06
2023-03-10T07:57:13.096Z,96993.72
2023-03-10T07:59:40.602Z,96991.53
2023-03-10T08:02:07.849Z,97001.28
2023-03-10T08:04:36.033Z,96987.56
2023-03-10T08:07:03.047Z,96984.63
2023-03-10T08:09:30.927Z,96989.53
2023-03-10T08:12:01.319Z,96999.88
2023-03-10T08:14:30.026Z,96957.53
2023-03-10T08:16:57.337Z,96967.44
2023-03-10T08:19:26.299Z,96963.63
2023-03-10T08:21:57.790Z,96961.91
2023-03-10T08:24:26.208Z,96966.19
2023-03-10T08:26:53.078Z,96959.38
2023-03-10T08:29:20.385Z,96972.59
2023-03-10T08:31:48.192Z,96950.56
2023-03-10T08:34:16.807Z,96945.84
2023-03-10T08:36:44.615Z,96943.84
2023-03-10T08:39:12.805Z,96945.16
2023-03-10T08:41:45.670Z,96952.88
2023-03-10T08:44:15.713Z,96922.38
2023-03-10T08:46:47.168Z,96947.47
2023-03-10T08:49:17.127Z,96954.38
2023-03-10T08:51:44.607Z,96927.56
2023-03-10T08:54:13.788Z,96916.97
2023-03-10T08:56:40.707Z,96921.88
2023-03-10T08:59:07.956Z,96954.78
2023-03-10T09:01:37.708Z,96916.63
2023-03-10T09:04:06.983Z,96905.03
2023-03-10T09:06:34.687Z,96903.72
2023-03-10T09:09:02.781Z,96914.63
2023-03-10T09:11:32.819Z,96918.47
2023-03-10T09:14:01.903Z,96915.63
2023-03-10T09:16:30.267Z,96908.78
2023-03-10T09:18:58.874Z,96915.13
2023-03-10T09:21:26.920Z,96909.91
2023-03-10T09:23:54.269Z,96907.38
2023-03-10T09:26:22.341Z,96904.41
2023-03-10T09:28:51.065Z,96910.13
2023-03-10T09:31:21.648Z,96904.09
2023-03-10T09:33:49.500Z,96923.75
2023-03-10T09:36:20.118Z,96918.41
2023-03-10T09:38:47.437Z,96909.44
2023-03-10T09:41:47.776Z,96961.47
2023-03-10T09:44:34.396Z,96912.59
2023-03-10T09:47:10.930Z,96913.06
2023-03-10T09:49:43.799Z,96946.94
2023-03-10T09:52:46.003Z,96891.72
2023-03-10T09:55:23.476Z,96897.22
2023-03-10T09:57:53.463Z,96893.16
2023-03-10T10:00:42.680Z,96894.88
2023-03-10T10:03:23.032Z,96882.13
2023-03-10T10:05:53.445Z,96883.97
2023-03-10T10:08:22.975Z,96878.47
2023-03-10T10:10:54.391Z,96869.00
2023-03-10T10:13:25.168Z,96916.47
2023-03-10T10:16:34.550Z,96871.13
2023-03-10T10:19:04.979Z,96872.94
2023-03-10T10:22:00.723Z,96870.84
2023-03-10T10:24:27.744Z,96873.59
2023-03-10T10:26:56.027Z,96869.50
2023-03-10T10:29:29.000Z,96872.75
2023-03-10T10:32:10.175Z,96886.16
2023-03-10T10:34:40.145Z,96865.25
2023-03-10T10:37:41.438Z,96834.66
2023-03-10T10:40:26.671Z,96848.59
2023-03-10T10:43:00.916Z,96844.94
2023-03-10T10:45:33.517Z,96856.66
2023-03-10T10:48:00.894Z,96853.88
2023-03-10T10:50:27.687Z,96846.59
2023-03-10T10:53:16.605Z,96831.31
2023-03-10T10:55:45.919Z,96824.47
2023-03-10T10:58:37.293Z,96825.63
2023-03-10T11:01:12.981Z,96819.25
2023-03-10T11:03:46.295Z,96813.22
2023-03-10T11:06:23.736Z,96827.00
2023-03-10T11:08:51.553Z,96811.69
2023-03-10T11:11:18.786Z,96808.59
2023-03-10T11:14:05.284Z,96795.69
2023-03-10T11:16:42.670Z,96790.44
2023-03-10T11:19:43.952Z,96784.09
2023-03-10T11:22:17.345Z,96787.81
2023-03-10T11:25:07.701Z,96803.13
2023-03-10T11:27:48.741Z,96789.59
2023-03-10T11:30:31.138Z,96814.97
2023-03-10T11:33:27.405Z,96804.00
2023-03-10T11:36:01.152Z,96771.22
2023-03-10T11:38:44.308Z,96784.13
2023-03-10T11:41:25.575Z,96753.44
2023-03-10T11:44:24.518Z,96767.44
2023-03-10T11:47:26.206Z,96749.09
2023-03-10T11:50:13.364Z,96748.72
2023-03-10T11:52:42.055Z,96740.53
2023-03-10T11:55:20.209Z,96752.19
2023-03-10T11:57:50.661Z,96755.53
2023-03-10T12:00:39.656Z,96733.38
2023-03-10T12:03:12.516Z,96741.06
2023-03-10T12:05:52.478Z,96760.16
2023-03-10T12:08:22.894Z,96767.06
2023-03-10T12:10:51.149Z,96769.63
2023-03-10T12:13:23.641Z,96765.81
2023-03-10T12:15:54.445Z,96735.06
2023-03-10T12:18:21.771Z,96729.06
2023-03-10T12:21:19.117Z,96706.88
2023-03-10T12:23:49.438Z,96721.22
2023-03-10T12:26:39.133Z,96727.09
2023-03-10T12:29:21.469Z,96725.19
2023-03-10T12:31:51.648Z,96722.59
2023-03-10T12:34:29.206Z,96707.47
2023-03-10T12:37:11.508Z,96702.50
2023-03-10T12:39:42.530Z,96733.75
2023-03-10T12:42:27.777Z,96710.06
2023-03-10T12:44:58.065Z,96722.44
2023-03-10T12:47:24.995Z,96711.34
2023-03-10T12:50:19.646Z,96754.97
2023-03-10T12:52:53.597Z,96760.47
2023-03-10T12:55:22.179Z,96715.81
2023-03-10T12:58:08.068Z,96721.91
2023-03-10T13:00:49.049Z,96711.94
2023-03-10T13:03:25.042Z,96702.56
2023-03-10T13:06:00.855Z,96707.41
2023-03-10T13:08:43.229Z,96732.06
2023-03-10T13:11:24.176Z,96700.56
2023-03-10T13:13:56.532Z,96694.44
2023-03-10T13:16:23.778Z,96708.97
2023-03-10T13:18:53.369Z,96685.00
2023-03-10T13:21:36.276Z,96682.34
2023-03-10T13:24:19.199Z,96676.19
2023-03-10T13:26:46.515Z,96688.19
2023-03-10T13:29:22.196Z,96671.19
2023-03-10T13:31:54.127Z,96656.22
2023-03-10T13:34:22.978Z,96669.72
2023-03-10T13:36:50.175Z,96675.03
2023-03-10T13:39:22.437Z,96670.22
2023-03-10T13:41:55.242Z,96694.00
2023-03-10T13:58:26.699Z,96678.88
2023-03-10T14:00:56.420Z,96677.34
2023-03-10T14:03:23.506Z,96680.81
2023-03-10T14:05:50.758Z,96658.91
2023-03-10T14:08:28.351Z,96657.88
2023-03-10T14:11:35.746Z,96664.50
2023-03-10T14:14:08.045Z,96689.38
2023-03-10T14:16:45.735Z,96628.91
2023-03-10T14:19:12.946Z,96635.84
2023-03-10T14:21:52.289Z,96637.16
2023-03-10T14:24:27.228Z,96663.41
2023-03-10T14:26:59.548Z,96633.84
2023-03-10T14:29:27.322Z,96642.97
2023-03-10T14:31:54.529Z,96634.78
2023-03-10T14:34:21.442Z,96631.59
2023-03-10T14:36:48.608Z,96660.97
2023-03-10T14:39:15.528Z,96631.06
2023-03-10T14:41:42.758Z,96627.53
2023-03-10T14:44:10.784Z,96622.22
2023-03-10T14:46:38.276Z,96600.44
2023-03-10T14:49:11.138Z,96611.53
2023-03-10T14:51:38.343Z,96659.09
2023-03-10T14:54:16.691Z,96636.69
2023-03-10T14:56:44.068Z,96601.13
2023-03-10T14:59:15.169Z,96623.31
2023-03-10T15:01:43.114Z,96610.19
2023-03-10T15:04:16.905Z,96605.00
2023-03-10T15:06:44.805Z,96600.28
2023-03-10T15:09:11.860Z,96593.94
2023-03-10T15:11:39.590Z,96588.09
2023-03-10T15:14:26.888Z,96583.06
2023-03-10T15:16:55.576Z,96594.31
2023-03-10T15:19:26.175Z,96617.97
2023-03-10T15:21:54.081Z,96611.28
2023-03-10T15:24:21.278Z,96586.03
2023-03-10T15:26:48.490Z,96590.66
2023-03-10T15:29:18.095Z,96585.81
2023-03-10T15:31:45.497Z,96582.34
2023-03-10T15:34:12.445Z,96577.88
2023-03-10T15:36:39.626Z,96581.66
2023-03-10T15:39:06.706Z,96596.34
2023-03-10T15:41:38.313Z,96583.41
2023-03-10T15:44:06.377Z,96571.75
2023-03-10T15:46:33.923Z,96578.19
2023-03-10T15:49:03.448Z,96580.97
2023-03-10T15:51:30.683Z,96566.66
2023-03-10T15:53:57.671Z,96582.56
2023-03-10T15:56:26.042Z,96581.19
2023-03-10T15:58:53.127Z,96575.78
2023-03-10T16:01:20.941Z,96582.91
2023-03-10T16:03:50.669Z,96571.09
2023-03-10T16:06:17.917Z,96568.91
2023-03-10T16:08:44.781Z,96584.25
2023-03-10T16:11:19.452Z,96589.16
2023-03-10T16:13:49.610Z,96578.31
2023-03-10T16:16:18.842Z,96585.59
2023-03-10T16:18:47.225Z,96576.94
2023-03-10T16:21:16.811Z,96587.16
2023-03-10T16:23:45.669Z,96581.00
2023-03-10T16:26:21.041Z,96583.66
2023-03-10T16:28:53.484Z,96578.81
2023-03-10T16:31:23.165Z,96578.66
2023-03-10T16:33:51.520Z,96576.31
2023-03-10T16:36:21.841Z,96575.78
2023-03-10T16:38:49.848Z,96577.03
2023-03-10T16:41:17.568Z,96573.47
2023-03-10T16:43:44.471Z,96582.97
2023-03-10T16:46:25.627Z,96587.06
2023-03-10T16:48:54.539Z,96569.22
2023-03-10T16:51:33.406Z,96594.44
2023-03-10T16:54:11.485Z,96576.59
2023-03-10T16:56:50.555Z,96582.84
2023-03-10T16:59:20.841Z,96577.72
2023-03-10T17:01:49.065Z,96574.84
2023-03-10T17:04:16.285Z,96566.34
2023-03-10T17:06:44.200Z,96573.31
2023-03-10T17:09:12.018Z,96584.78
2023-03-10T17:11:55.352Z,96581.69
2023-03-10T17:14:23.092Z,96590.31
2023-03-10T17:16:51.122Z,96574.59
2023-03-10T17:19:20.754Z,96576.41
2023-03-10T17:21:50.659Z,96566.25
2023-03-10T17:24:19.494Z,96571.00
2023-03-10T17:26:47.502Z,96568.63
2023-03-10T17:29:15.205Z,96577.84
2023-03-10T17:31:44.057Z,96579.13
2023-03-10T17:34:13.528Z,96571.63
2023-03-10T17:36:40.800Z,96562.81
2023-03-10T17:39:07.771Z,96561.84
2023-03-10T17:41:36.200Z,96567.75
2023-03-10T17:44:06.486Z,96551.16
2023-03-10T17:46:33.858Z,96577.03
2023-03-10T17:49:00.786Z,96573.69
2023-03-10T17:51:30.712Z,96561.03
2023-03-10T17:54:00.892Z,96573.00
2023-03-10T17:56:29.151Z,96588.47
2023-03-10T17:58:57.284Z,96592.06
2023-03-10T18:01:27.437Z,96572.31
2023-03-10T18:03:56.210Z,96569.25
2023-03-10T18:06:30.440Z,96562.44
2023-03-10T18:08:59.260Z,96563.28
2023-03-10T18:11:27.439Z,96564.50
2023-03-10T18:13:54.596Z,96568.28
2023-03-10T18:16:26.518Z,96561.75
2023-03-10T18:18:54.794Z,96570.91
2023-03-10T18:21:23.154Z,96555.31
2023-03-10T18:23:51.483Z,96558.13
2023-03-10T18:26:22.350Z,96551.56
2023-03-10T18:28:49.383Z,96548.50
2023-03-10T18:31:25.851Z,96550.75
2023-03-10T18:33:52.908Z,96539.06
2023-03-10T18:36:20.990Z,96534.84
2023-03-10T18:38:48.891Z,96531.69
2023-03-10T18:41:19.779Z,96529.28
2023-03-10T18:43:46.897Z,96530.41
2023-03-10T18:46:14.115Z,96536.25
2023-03-10T18:48:41.382Z,96542.59
2023-03-10T18:51:08.665Z,96515.50
2023-03-10T18:53:36.920Z,96515.78
2023-03-10T18:56:04.251Z,96521.19
2023-03-10T18:58:33.115Z,96517.47
2023-03-10T19:01:00.405Z,96521.91
2023-03-10T19:03:31.000Z,96518.31
2023-03-10T19:05:58.483Z,96511.50
2023-03-10T19:08:27.286Z,96508.16
2023-03-10T19:10:59.192Z,96515.63
2023-03-10T19:13:28.159Z,96515.78
2023-03-10T19:15:55.668Z,96503.69
2023-03-10T19:18:23.277Z,96485.47
2023-03-10T19:20:51.074Z,96501.31
2023-03-10T19:23:18.508Z,96504.94
2023-03-10T19:25:45.802Z,96486.69
2023-03-10T19:28:12.786Z,96492.25
2023-03-10T19:30:42.920Z,96493.09
2023-03-10T19:33:11.059Z,96491.56
2023-03-10T19:35:38.869Z,96480.59
2023-03-10T19:38:05.893Z,96479.72
2023-03-10T19:40:33.679Z,96479.25
2023-03-10T19:43:01.323Z,96485.06
2023-03-10T19:45:29.401Z,96474.19
2023-03-10T19:47:58.124Z,96477.22
2023-03-10T19:50:26.447Z,96469.03
2023-03-10T19:52:53.442Z,96463.59
2023-03-10T19:55:23.870Z,96450.09
2023-03-10T19:57:53.659Z,96460.06
2023-03-10T20:00:25.579Z,96452.28
2023-03-10T20:02:54.279Z,96452.44
2023-03-10T20:05:22.249Z,96454.91
2023-03-10T20:07:49.239Z,96449.78
2023-03-10T20:10:18.282Z,96441.63
2023-03-10T20:12:47.321Z,96447.72
2023-03-10T20:15:15.109Z,96445.06
2023-03-10T20:17:42.171Z,96444.13
2023-03-10T20:20:11.131Z,96445.78
2023-03-10T20:22:45.512Z,96437.31
2023-03-10T20:25:16.825Z,96426.31
2023-03-10T20:27:44.656Z,96436.31
2023-03-10T20:30:18.041Z,96424.34
2023-03-10T20:32:45.943Z,96423.78
2023-03-10T20:35:14.119Z,96420.31
2023-03-10T20:37:45.022Z,96427.22
2023-03-10T20:40:16.550Z,96427.50
2023-03-10T20:42:43.681Z,96427.19
2023-03-10T20:45:14.161Z,96421.50
2023-03-10T20:47:41.580Z,96422.00
2023-03-10T20:50:10.392Z,96431.28
2023-03-10T20:52:39.539Z,96426.41
2023-03-10T20:55:08.224Z,96419.72
2023-03-10T20:57:35.166Z,96414.56
2023-03-10T21:00:04.298Z,96414.69
2023-03-10T21:02:31.314Z,96419.00
2023-03-10T21:04:58.675Z,96413.59
2023-03-10T21:07:25.768Z,96407.09
2023-03-10T21:09:53.050Z,96392.72
2023-03-10T21:12:21.217Z,96401.63
2023-03-10T21:14:48.482Z,96398.03
2023-03-10T21:17:15.531Z,96395.97
2023-03-10T21:19:42.821Z,96397.97
2023-03-10T21:22:09.828Z,96388.09
2023-03-10T21:24:38.104Z,96389.22
2023-03-10T21:27:05.512Z,96383.22
2023-03-10T21:29:34.554Z,96387.13
2023-03-10T21:32:01.458Z,96382.38
2023-03-10T21:34:28.977Z,96377.63
2023-03-10T21:36:55.822Z,96371.22
2023-03-10T21:39:23.276Z,96375.34
2023-03-10T21:41:50.186Z,96367.25
2023-03-10T21:44:17.411Z,96365.00
2023-03-10T21:46:44.627Z,96365.28
2023-03-10T21:49:11.934Z,96364.41
2023-03-10T21:51:38.794Z,96353.66
2023-03-10T21:54:06.101Z,96353.50
2023-03-10T21:56:33.031Z,96349.91
2023-03-10T21:59:00.220Z,96341.31
2023-03-10T22:01:27.618Z,96342.25
2023-03-10T22:03:54.858Z,96346.69
2023-03-10T22:06:22.071Z,96339.78
2023-03-10T22:08:49.558Z,96334.63
2023-03-10T22:11:17.122Z,96330.47
2023-03-10T22:13:44.714Z,96325.31
2023-03-10T22:16:16.988Z,96331.25
2023-03-10T22:18:44.964Z,96318.91
2023-03-10T22:21:12.432Z,96318.59
2023-03-10T22:23:39.980Z,96314.44
2023-03-10T22:26:07.864Z,96319.56
2023-03-10T22:28:35.096Z,96317.06
2023-03-10T22:31:05.942Z,96314.44
2023-03-10T22:33:34.242Z,96306.53
2023-03-10T22:36:09.036Z,96303.91
2023-03-10T22:38:36.370Z,96298.38
2023-03-10T22:41:03.584Z,96299.06
2023-03-10T22:43:30.763Z,96290.06
2023-03-10T22:45:59.910Z,96281.09
2023-03-10T22:48:27.116Z,96285.53
2023-03-10T22:50:54.046Z,96283.59
2023-03-10T22:53:21.272Z,96280.00
2023-03-10T22:55:50.010Z,96282.50
2023-03-10T22:58:17.536Z,96276.53
2023-03-10T23:00:44.737Z,96272.34
2023-03-10T23:03:13.901Z,96269.28
2023-03-10T23:05:41.735Z,96274.81
2023-03-10T23:08:09.057Z,96275.63
2023-03-10T23:10:36.978Z,96279.16
2023-03-10T23:13:12.527Z,96276.97
2023-03-10T23:15:39.989Z,96286.19
2023-03-10T23:18:07.964Z,96292.81
2023-03-10T23:20:38.859Z,96294.94
2023-03-10T23:23:08.390Z,96314.69
2023-03-10T23:25:37.648Z,96312.19
2023-03-10T23:28:06.688Z,96325.66
2023-03-10T23:30:34.988Z,96322.78
2023-03-10T23:33:02.387Z,96316.94
2023-03-10T23:35:32.211Z,96300.84
2023-03-10T23:38:00.564Z,96304.28
2023-03-10T23:40:29.728Z,96303.47
2023-03-10T23:42:58.611Z,96297.50
2023-03-10T23:45:28.766Z,96300.25
2023-03-10T23:47:57.461Z,96289.00
2023-03-10T23:50:28.720Z,96285.66
2023-03-10T23:52:56.811Z,96271.84
2023-03-10T23:55:37.371Z,96273.50
2023-03-10T23:58:06.020Z,96264.78
